Anzahl Datensätze: 144
min. Temperatur: 6.8 °C
max. Temperatur: 19.0 °C
max. Windgeschwindigkeit: 10.1 km/h
Niederschlagsumme: 0.0 mm
| Datum |
Zeit |
Temp °C |
Feuchte % |
Taupunkt °C |
Luftdruck hPa |
Wind km/h |
Windrichtung |
Strahlung w/m² |
Niederschlag mm |
|---|---|---|---|---|---|---|---|---|---|
| 06.09.2025 | 00:00 | 9.5 | 91 | 8.1 | 1024.2 | 1.1 | O | 0 | 0.0 |
| 06.09.2025 | 00:10 | 9.2 | 91 | 7.8 | 1024.1 | 3.6 | NNO | 0 | 0.0 |
| 06.09.2025 | 00:20 | 9.3 | 91 | 7.9 | 1024.0 | 0.7 | N | 0 | 0.0 |
| 06.09.2025 | 00:30 | 9.3 | 91 | 7.9 | 1024.0 | 2.2 | NNO | 0 | 0.0 |
| 06.09.2025 | 00:40 | 9.1 | 91 | 7.8 | 1024.0 | 1.4 | NNO | 0 | 0.0 |
| 06.09.2025 | 00:50 | 9.3 | 90 | 7.7 | 1024.1 | 2.9 | N | 0 | 0.0 |
| 06.09.2025 | 01:00 | 9.0 | 92 | 7.8 | 1024.0 | 2.9 | N | 0 | 0.0 |
| 06.09.2025 | 01:10 | 9.0 | 91 | 7.7 | 1024.0 | 3.6 | NNO | 0 | 0.0 |
| 06.09.2025 | 01:21 | 9.0 | 91 | 7.7 | 1024.0 | 2.9 | NNO | 0 | 0.0 |
| 06.09.2025 | 01:31 | 8.9 | 92 | 7.6 | 1024.2 | 2.9 | N | 0 | 0.0 |
| 06.09.2025 | 01:41 | 9.2 | 92 | 7.9 | 1024.1 | 1.8 | N | 0 | 0.0 |
| 06.09.2025 | 01:51 | 8.8 | 92 | 7.7 | 1024.0 | 1.1 | NNW | 0 | 0.0 |
| 06.09.2025 | 02:01 | 8.6 | 93 | 7.5 | 1024.2 | 1.8 | N | 0 | 0.0 |
| 06.09.2025 | 02:11 | 8.4 | 92 | 7.2 | 1024.2 | 2.9 | NNO | 0 | 0.0 |
| 06.09.2025 | 02:21 | 8.3 | 92 | 7.1 | 1024.1 | 3.2 | NNO | 0 | 0.0 |
| 06.09.2025 | 02:31 | 8.5 | 91 | 7.1 | 1024.0 | 0.7 | NO | 0 | 0.0 |
| 06.09.2025 | 02:41 | 8.2 | 92 | 7.0 | 1024.1 | 3.2 | NNO | 0 | 0.0 |
| 06.09.2025 | 02:51 | 8.2 | 92 | 7.0 | 1023.9 | 3.2 | NNO | 0 | 0.0 |
| 06.09.2025 | 03:01 | 8.6 | 90 | 7.1 | 1023.8 | 2.9 | S | 0 | 0.0 |
| 06.09.2025 | 03:11 | 8.2 | 92 | 7.0 | 1023.8 | 1.8 | N | 0 | 0.0 |
| 06.09.2025 | 03:21 | 8.0 | 93 | 6.9 | 1023.8 | 4.0 | NNO | 0 | 0.0 |
| 06.09.2025 | 03:31 | 7.9 | 94 | 6.9 | 1023.8 | 2.9 | NNO | 0 | 0.0 |
| 06.09.2025 | 03:41 | 8.2 | 92 | 7.0 | 1023.8 | 4.3 | NO | 0 | 0.0 |
| 06.09.2025 | 03:51 | 8.4 | 90 | 6.8 | 1023.7 | 1.4 | N | 0 | 0.0 |
| 06.09.2025 | 04:01 | 8.0 | 93 | 7.0 | 1023.6 | 2.2 | N | 0 | 0.0 |
| 06.09.2025 | 04:11 | 7.8 | 93 | 6.7 | 1023.6 | 2.5 | N | 0 | 0.0 |
| 06.09.2025 | 04:21 | 7.8 | 94 | 6.8 | 1023.6 | 0.7 | N | 0 | 0.0 |
| 06.09.2025 | 04:31 | 7.6 | 94 | 6.7 | 1023.7 | 2.2 | N | 0 | 0.0 |
| 06.09.2025 | 04:41 | 8.0 | 93 | 6.9 | 1023.6 | 2.5 | S | 0 | 0.0 |
| 06.09.2025 | 04:51 | 7.6 | 94 | 6.7 | 1023.8 | 4.0 | NNO | 0 | 0.0 |
| 06.09.2025 | 05:01 | 7.6 | 93 | 6.6 | 1023.8 | 1.8 | S | 0 | 0.0 |
| 06.09.2025 | 05:11 | 7.4 | 94 | 6.5 | 1023.8 | 3.2 | NNO | 0 | 0.0 |
| 06.09.2025 | 05:21 | 7.7 | 94 | 6.8 | 1023.6 | 1.4 | NO | 0 | 0.0 |
| 06.09.2025 | 05:31 | 7.5 | 93 | 6.4 | 1023.6 | 1.4 | NNO | 0 | 0.0 |
| 06.09.2025 | 05:41 | 7.2 | 94 | 6.2 | 1023.6 | 1.4 | N | 0 | 0.0 |
| 06.09.2025 | 05:51 | 7.2 | 94 | 6.3 | 1023.6 | 0.4 | N | 0 | 0.0 |
| 06.09.2025 | 06:01 | 7.2 | 93 | 6.1 | 1023.5 | 1.8 | NNO | 0 | 0.0 |
| 06.09.2025 | 06:12 | 7.1 | 93 | 6.0 | 1023.5 | 2.5 | NNO | 0 | 0.0 |
| 06.09.2025 | 06:22 | 7.1 | 93 | 6.1 | 1023.3 | 2.5 | NNO | 0 | 0.0 |
| 06.09.2025 | 06:32 | 7.1 | 93 | 6.0 | 1023.4 | 1.4 | N | 0 | 0.0 |
| 06.09.2025 | 06:42 | 7.0 | 92 | 5.9 | 1023.4 | 1.8 | NO | 0 | 0.0 |
| 06.09.2025 | 06:52 | 7.1 | 93 | 6.0 | 1023.5 | 1.4 | NNW | 2 | 0.0 |
| 06.09.2025 | 07:02 | 6.9 | 93 | 5.8 | 1023.4 | 1.4 | NNO | 5 | 0.0 |
| 06.09.2025 | 07:12 | 6.9 | 93 | 5.8 | 1023.5 | 1.4 | NNO | 9 | 0.0 |
| 06.09.2025 | 07:22 | 6.8 | 94 | 5.9 | 1023.5 | 3.2 | N | 12 | 0.0 |
| 06.09.2025 | 07:32 | 6.8 | 94 | 5.9 | 1023.6 | 1.1 | N | 16 | 0.0 |
| 06.09.2025 | 07:42 | 6.9 | 93 | 5.9 | 1023.5 | 1.1 | SSW | 21 | 0.0 |
| 06.09.2025 | 07:52 | 7.1 | 94 | 6.2 | 1023.4 | 1.4 | N | 29 | 0.0 |
| 06.09.2025 | 08:02 | 7.4 | 92 | 6.2 | 1023.4 | 0.7 | N | 33 | 0.0 |
| 06.09.2025 | 08:12 | 7.7 | 92 | 6.4 | 1023.5 | 1.4 | NO | 31 | 0.0 |
| 06.09.2025 | 08:22 | 8.0 | 90 | 6.5 | 1023.3 | 2.2 | S | 29 | 0.0 |
| 06.09.2025 | 08:32 | 8.2 | 92 | 7.0 | 1023.2 | 0.7 | N | 31 | 0.0 |
| 06.09.2025 | 08:42 | 8.6 | 91 | 7.2 | 1023.1 | 4.0 | SSO | 34 | 0.0 |
| 06.09.2025 | 08:52 | 8.9 | 89 | 7.2 | 1022.9 | 3.2 | S | 181 | 0.0 |
| 06.09.2025 | 09:02 | 9.7 | 84 | 7.2 | 1022.6 | 3.6 | S | 205 | 0.0 |
| 06.09.2025 | 09:12 | 9.9 | 81 | 6.7 | 1022.5 | 5.8 | S | 246 | 0.0 |
| 06.09.2025 | 09:22 | 10.6 | 74 | 6.2 | 1022.4 | 2.9 | S | 240 | 0.0 |
| 06.09.2025 | 09:32 | 10.9 | 77 | 7.0 | 1022.3 | 1.8 | S | 275 | 0.0 |
| 06.09.2025 | 09:42 | 10.9 | 76 | 6.8 | 1022.2 | 4.7 | S | 295 | 0.0 |
| 06.09.2025 | 09:52 | 10.9 | 77 | 7.0 | 1022.4 | 4.3 | S | 269 | 0.0 |
| 06.09.2025 | 10:02 | 11.0 | 75 | 6.6 | 1022.3 | 4.0 | SSW | 325 | 0.0 |
| 06.09.2025 | 10:12 | 11.4 | 73 | 6.9 | 1022.1 | 4.3 | SSW | 355 | 0.0 |
| 06.09.2025 | 10:22 | 12.1 | 70 | 6.7 | 1022.1 | 3.2 | S | 371 | 0.0 |
| 06.09.2025 | 10:32 | 13.1 | 67 | 7.1 | 1021.8 | 4.0 | S | 314 | 0.0 |
| 06.09.2025 | 10:42 | 11.8 | 71 | 6.8 | 1022.2 | 5.8 | SSW | 402 | 0.0 |
| 06.09.2025 | 10:52 | 12.7 | 70 | 7.3 | 1022.1 | 5.8 | SSW | 455 | 0.0 |
| 06.09.2025 | 11:02 | 12.4 | 70 | 7.0 | 1022.0 | 3.6 | S | 487 | 0.0 |
| 06.09.2025 | 11:12 | 12.5 | 72 | 7.5 | 1022.0 | 5.4 | SSW | 446 | 0.0 |
| 06.09.2025 | 11:22 | 12.8 | 70 | 7.6 | 1021.9 | 4.0 | S | 455 | 0.0 |
| 06.09.2025 | 11:33 | 14.1 | 68 | 8.3 | 1021.5 | 3.6 | S | 530 | 0.0 |
| 06.09.2025 | 11:43 | 13.6 | 67 | 7.6 | 1021.4 | 3.6 | S | 494 | 0.0 |
| 06.09.2025 | 11:53 | 13.4 | 68 | 7.6 | 1021.4 | 5.0 | SSW | 535 | 0.0 |
| 06.09.2025 | 12:03 | 13.4 | 66 | 7.3 | 1021.4 | 4.3 | SSW | 551 | 0.0 |
| 06.09.2025 | 12:13 | 14.1 | 64 | 7.4 | 1021.0 | 2.9 | SSW | 552 | 0.0 |
| 06.09.2025 | 12:23 | 14.6 | 61 | 7.3 | 1020.6 | 5.8 | SSW | 506 | 0.0 |
| 06.09.2025 | 12:33 | 15.0 | 62 | 7.8 | 1020.3 | 4.7 | S | 350 | 0.0 |
| 06.09.2025 | 12:43 | 14.9 | 60 | 7.1 | 1020.2 | 4.7 | SSW | 582 | 0.0 |
| 06.09.2025 | 12:53 | 14.8 | 62 | 7.6 | 1020.1 | 7.6 | SSW | 575 | 0.0 |
| 06.09.2025 | 13:03 | 15.0 | 63 | 8.0 | 1020.1 | 4.3 | S | 545 | 0.0 |
| 06.09.2025 | 13:13 | 15.1 | 62 | 7.9 | 1019.9 | 6.5 | S | 569 | 0.0 |
| 06.09.2025 | 13:23 | 16.6 | 57 | 8.1 | 1019.4 | 2.2 | SSW | 552 | 0.0 |
| 06.09.2025 | 13:33 | 16.1 | 58 | 7.9 | 1019.5 | 7.6 | S | 538 | 0.0 |
| 06.09.2025 | 13:43 | 15.5 | 63 | 8.4 | 1019.7 | 6.8 | SSW | 603 | 0.0 |
| 06.09.2025 | 13:53 | 15.7 | 63 | 8.6 | 1019.7 | 5.0 | S | 587 | 0.0 |
| 06.09.2025 | 14:03 | 17.6 | 57 | 8.9 | 1019.2 | 1.4 | WSW | 503 | 0.0 |
| 06.09.2025 | 14:13 | 17.6 | 57 | 9.1 | 1019.2 | 5.8 | S | 542 | 0.0 |
| 06.09.2025 | 14:23 | 17.2 | 59 | 9.1 | 1019.2 | 3.6 | WSW | 487 | 0.0 |
| 06.09.2025 | 14:33 | 18.4 | 57 | 9.7 | 1018.9 | 4.3 | SSW | 571 | 0.0 |
| 06.09.2025 | 14:43 | 16.8 | 58 | 8.4 | 1019.2 | 5.8 | S | 540 | 0.0 |
| 06.09.2025 | 14:53 | 17.5 | 56 | 8.7 | 1019.0 | 5.8 | SSW | 542 | 0.0 |
| 06.09.2025 | 15:03 | 16.5 | 55 | 7.5 | 1019.1 | 5.0 | SSW | 495 | 0.0 |
| 06.09.2025 | 15:13 | 16.4 | 60 | 8.7 | 1019.2 | 5.0 | SSW | 502 | 0.0 |
| 06.09.2025 | 15:23 | 16.5 | 64 | 9.7 | 1019.0 | 5.0 | S | 507 | 0.0 |
| 06.09.2025 | 15:33 | 17.7 | 59 | 9.5 | 1018.8 | 1.1 | SW | 507 | 0.0 |
| 06.09.2025 | 15:43 | 18.2 | 58 | 9.8 | 1018.6 | 2.9 | WSW | 491 | 0.0 |
| 06.09.2025 | 15:53 | 17.9 | 54 | 8.4 | 1018.7 | 3.6 | SSW | 476 | 0.0 |
| 06.09.2025 | 16:03 | 18.2 | 57 | 9.6 | 1018.4 | 1.8 | SSW | 455 | 0.0 |
| 06.09.2025 | 16:13 | 19.0 | 54 | 9.6 | 1018.3 | 2.9 | SW | 437 | 0.0 |
| 06.09.2025 | 16:23 | 18.5 | 50 | 7.9 | 1018.1 | 4.7 | SSW | 420 | 0.0 |
| 06.09.2025 | 16:34 | 17.8 | 54 | 8.3 | 1018.3 | 4.7 | S | 358 | 0.0 |
| 06.09.2025 | 16:44 | 17.6 | 56 | 8.6 | 1018.3 | 3.2 | SSW | 269 | 0.0 |
| 06.09.2025 | 16:54 | 17.2 | 64 | 10.3 | 1018.3 | 5.0 | SSW | 289 | 0.0 |
| 06.09.2025 | 17:04 | 17.7 | 63 | 10.7 | 1018.1 | 5.0 | S | 346 | 0.0 |
| 06.09.2025 | 17:14 | 17.3 | 64 | 10.4 | 1018.3 | 4.3 | SSW | 311 | 0.0 |
| 06.09.2025 | 17:24 | 17.6 | 61 | 9.9 | 1018.2 | 4.7 | SSW | 310 | 0.0 |
| 06.09.2025 | 17:34 | 18.0 | 56 | 9.2 | 1018.2 | 1.8 | SSW | 272 | 0.0 |
| 06.09.2025 | 17:44 | 17.9 | 66 | 11.6 | 1018.0 | 3.6 | SSW | 195 | 0.0 |
| 06.09.2025 | 17:54 | 17.8 | 49 | 6.9 | 1018.2 | 2.5 | SSW | 123 | 0.0 |
| 06.09.2025 | 18:04 | 18.4 | 54 | 9.0 | 1018.2 | 3.2 | SW | 129 | 0.0 |
| 06.09.2025 | 18:14 | 18.0 | 53 | 8.2 | 1018.2 | 4.0 | SSW | 126 | 0.0 |
| 06.09.2025 | 18:24 | 16.6 | 71 | 11.4 | 1018.3 | 3.6 | SSW | 84 | 0.0 |
| 06.09.2025 | 18:34 | 16.9 | 71 | 11.6 | 1018.2 | 3.2 | SSW | 121 | 0.0 |
| 06.09.2025 | 18:44 | 17.4 | 72 | 12.2 | 1018.2 | 2.9 | SW | 71 | 0.0 |
| 06.09.2025 | 18:54 | 16.8 | 73 | 12.0 | 1018.2 | 3.2 | SSW | 57 | 0.0 |
| 06.09.2025 | 19:04 | 16.3 | 78 | 12.5 | 1018.4 | 1.4 | S | 44 | 0.0 |
| 06.09.2025 | 19:14 | 16.2 | 74 | 11.5 | 1018.4 | 1.1 | NNO | 35 | 0.0 |
| 06.09.2025 | 19:24 | 16.2 | 70 | 10.7 | 1018.5 | 1.4 | N | 27 | 0.0 |
| 06.09.2025 | 19:34 | 15.8 | 73 | 11.0 | 1018.6 | 4.3 | N | 17 | 0.0 |
| 06.09.2025 | 19:44 | 15.4 | 73 | 10.6 | 1018.9 | 3.2 | N | 10 | 0.0 |
| 06.09.2025 | 19:54 | 15.4 | 77 | 11.4 | 1018.9 | 0.4 | N | 4 | 0.0 |
| 06.09.2025 | 20:04 | 14.9 | 76 | 10.6 | 1019.1 | 3.2 | N | 2 | 0.0 |
| 06.09.2025 | 20:14 | 14.5 | 73 | 9.8 | 1019.3 | 4.0 | NNO | 0 | 0.0 |
| 06.09.2025 | 20:24 | 14.5 | 74 | 9.9 | 1019.3 | 1.8 | NNO | 0 | 0.0 |
| 06.09.2025 | 20:34 | 14.2 | 78 | 10.4 | 1019.5 | 1.1 | NNO | 0 | 0.0 |
| 06.09.2025 | 20:44 | 14.2 | 76 | 10.1 | 1019.6 | 1.1 | NO | 0 | 0.0 |
| 06.09.2025 | 20:54 | 14.0 | 79 | 10.4 | 1019.7 | 1.1 | N | 0 | 0.0 |
| 06.09.2025 | 21:04 | 13.4 | 78 | 9.7 | 1019.9 | 2.9 | NNO | 0 | 0.0 |
| 06.09.2025 | 21:14 | 13.4 | 79 | 9.8 | 1019.9 | 2.2 | SSO | 0 | 0.0 |
| 06.09.2025 | 21:24 | 13.1 | 79 | 9.6 | 1019.9 | 1.4 | NNO | 0 | 0.0 |
| 06.09.2025 | 21:35 | 13.0 | 80 | 9.6 | 1019.8 | 2.2 | NNO | 0 | 0.0 |
| 06.09.2025 | 21:45 | 13.1 | 79 | 9.5 | 1019.9 | 0.7 | N | 0 | 0.0 |
| 06.09.2025 | 21:55 | 12.8 | 84 | 10.2 | 1019.8 | 1.1 | N | 0 | 0.0 |
| 06.09.2025 | 22:05 | 12.5 | 84 | 9.9 | 1019.8 | 1.1 | NO | 0 | 0.0 |
| 06.09.2025 | 22:15 | 12.3 | 84 | 9.7 | 1019.9 | 1.1 | N | 0 | 0.0 |
| 06.09.2025 | 22:25 | 12.2 | 82 | 9.3 | 1020.0 | 0.7 | NNO | 0 | 0.0 |
| 06.09.2025 | 22:35 | 12.4 | 81 | 9.2 | 1019.9 | 1.4 | N | 0 | 0.0 |
| 06.09.2025 | 22:45 | 12.0 | 87 | 9.9 | 1019.9 | 3.2 | N | 0 | 0.0 |
| 06.09.2025 | 22:55 | 11.8 | 85 | 9.3 | 1019.7 | 2.2 | NNO | 0 | 0.0 |
| 06.09.2025 | 23:05 | 12.0 | 82 | 9.1 | 1019.9 | 0.7 | N | 0 | 0.0 |
| 06.09.2025 | 23:15 | 11.7 | 87 | 9.5 | 1019.7 | 1.1 | NNW | 0 | 0.0 |
| 06.09.2025 | 23:25 | 11.4 | 86 | 9.3 | 1019.8 | 1.8 | NNO | 0 | 0.0 |
| 06.09.2025 | 23:35 | 11.1 | 88 | 9.2 | 1019.8 | 1.8 | NNO | 0 | 0.0 |
| 06.09.2025 | 23:45 | 11.5 | 86 | 9.2 | 1019.8 | 2.5 | S | 0 | 0.0 |
| 06.09.2025 | 23:55 | 11.1 | 86 | 8.8 | 1019.9 | 1.1 | N | 0 | 0.0 |